Terminal Aerodrome Forecast
Issued by NWS Austin/San Antonio, TX

Home | Current Version | Previous Version | Text Only | Print | Product List | Glossary On
Versions: 1 2 3 4 5 6 7 8 9 10 11 12 13 14 15 16 17 18 19 20 21 22 23 24 25 26
000
FTUS44 KEWX 180538
TAFAUS
TAF
KAUS 180538Z 1806/1912 19004KT 3/4SM -DZ BR OVC002
     FM180700 VRB03KT 1/4SM -DZ FG VV002
     FM181800 VRB03KT 3SM BR OVC004
     FM182100 12004KT P6SM VCSH BKN010
     FM190300 08004KT 4SM BR VCSH OVC005=

USA.gov is the U.S. government's official web portal to all federal, state and local government web resources and services.